Time;durP1;ratioP1;P1;durP2;ratioP2;P2;SDS_P1;SDS_P2;PMS_P1;PMS_P2;Temp;Humidity;BMP_temperature;BMP_pressure;BME280_temperature;BME280_humidity;BME280_pressure;Samples;Min_cycle;Max_cycle;Signal;HPM_P1;HPM_P2
2021/05/30 00:01:06;;;;;;;8.00;4.50;;;;;;;;;;4981742;28;20508;-47
2021/05/30 00:03:33;;;;;;;7.25;4.60;;;;;;;;;;4991932;28;20059;-48
2021/05/30 00:06:00;;;;;;;7.00;4.43;;;;;;;;;;4991120;28;20416;-52
2021/05/30 00:08:27;;;;;;;6.93;5.00;;;;;;;;;;4982988;28;20054;-46
2021/05/30 00:10:54;;;;;;;10.40;5.15;;;;;;;;;;4991160;28;20458;-49
2021/05/30 00:13:20;;;;;;;5.05;4.10;;;;;;;;;;4992785;28;20050;-52
2021/05/30 00:15:47;;;;;;;5.35;4.20;;;;;;;;;;4989442;28;20046;-54
2021/05/30 00:18:14;;;;;;;5.40;4.15;;;;;;;;;;4991105;28;20050;-49
2021/05/30 00:20:41;;;;;;;5.65;4.13;;;;;;;;;;4992647;28;20054;-50
2021/05/30 00:23:08;;;;;;;5.63;4.35;;;;;;;;;;4990541;28;20096;-52
2021/05/30 00:25:35;;;;;;;5.20;3.97;;;;;;;;;;4998045;28;20455;-52
2021/05/30 00:28:02;;;;;;;7.18;4.10;;;;;;;;;;4987049;28;20435;-51
2021/05/30 00:30:29;;;;;;;6.10;4.47;;;;;;;;;;4989180;28;20058;-52
2021/05/30 00:32:56;;;;;;;6.95;4.28;;;;;;;;;;4984911;28;20078;-48
2021/05/30 00:35:22;;;;;;;5.82;4.20;;;;;;;;;;4987393;28;20463;-49
2021/05/30 00:37:49;;;;;;;4.95;3.97;;;;;;;;;;4990252;28;20054;-51
2021/05/30 00:40:16;;;;;;;6.80;3.72;;;;;;;;;;4984097;28;20109;-53
2021/05/30 00:42:43;;;;;;;6.60;4.22;;;;;;;;;;4990365;28;20058;-48
2021/05/30 00:45:11;;;;;;;7.25;4.35;;;;;;;;;;4991163;28;20424;-50
2021/05/30 00:47:38;;;;;;;9.93;4.47;;;;;;;;;;4989682;28;20054;-49
2021/05/30 00:50:05;;;;;;;7.00;4.07;;;;;;;;;;4990513;28;20141;-49
2021/05/30 00:52:32;;;;;;;8.43;4.57;;;;;;;;;;4991176;28;20062;-51
2021/05/30 00:55:03;;;;;;;6.82;5.95;;;;;;;;;;4989842;28;20096;-50
2021/05/30 00:57:29;;;;;;;6.13;4.10;;;;;;;;;;4990208;28;20069;-50
2021/05/30 00:59:56;;;;;;;7.18;4.43;;;;;;;;;;4984620;28;20062;-50
2021/05/30 01:02:23;;;;;;;6.00;4.55;;;;;;;;;;4990395;28;20065;-47
2021/05/30 01:04:50;;;;;;;7.97;4.88;;;;;;;;;;4990803;28;20419;-49
2021/05/30 01:07:18;;;;;;;6.32;4.57;;;;;;;;;;4986023;28;20047;-49
2021/05/30 01:09:46;;;;;;;7.00;4.60;;;;;;;;;;4985932;28;20074;-50
2021/05/30 01:12:14;;;;;;;6.82;5.13;;;;;;;;;;4990682;28;20058;-45
2021/05/30 01:14:41;;;;;;;7.13;5.28;;;;;;;;;;4989045;28;20397;-45
2021/05/30 01:17:09;;;;;;;7.28;4.45;;;;;;;;;;4987117;28;20062;-48
2021/05/30 01:19:36;;;;;;;6.20;4.85;;;;;;;;;;4985127;28;20515;-47
2021/05/30 01:22:05;;;;;;;6.68;5.28;;;;;;;;;;4990531;28;20116;-50
2021/05/30 01:24:34;;;;;;;8.23;4.90;;;;;;;;;;4991587;28;20058;-45
2021/05/30 01:27:01;;;;;;;8.38;5.07;;;;;;;;;;4984549;28;20047;-46
2021/05/30 01:29:28;;;;;;;6.53;4.88;;;;;;;;;;4981931;28;20461;-48
2021/05/30 01:31:54;;;;;;;6.10;4.50;;;;;;;;;;4989834;28;20046;-46
2021/05/30 01:34:21;;;;;;;7.95;5.00;;;;;;;;;;4991288;28;20551;-50
2021/05/30 01:36:48;;;;;;;5.93;4.95;;;;;;;;;;4986116;28;20047;-47
2021/05/30 01:39:15;;;;;;;6.80;5.18;;;;;;;;;;4990581;28;20124;-45
2021/05/30 01:41:42;;;;;;;7.28;5.60;;;;;;;;;;4988724;28;20109;-51
2021/05/30 01:44:09;;;;;;;8.02;5.28;;;;;;;;;;4991096;28;20050;-46
2021/05/30 01:46:36;;;;;;;6.28;5.00;;;;;;;;;;4984848;28;20047;-47
2021/05/30 01:49:02;;;;;;;7.05;5.38;;;;;;;;;;4984423;28;20137;-47
2021/05/30 01:51:29;;;;;;;7.32;5.30;;;;;;;;;;4991431;28;20476;-45
2021/05/30 01:54:06;;;;;;;6.85;5.18;;;;;;;;;;4994190;28;20408;-49
2021/05/30 01:59:19;;;;;;;8.25;5.43;;;;;;;;;;4986344;28;20050;-46
2021/05/30 02:01:48;;;;;;;7.35;5.32;;;;;;;;;;4993496;28;20065;-45
2021/05/30 02:04:15;;;;;;;7.82;5.43;;;;;;;;;;4993285;28;20057;-50
2021/05/30 02:06:42;;;;;;;7.68;5.25;;;;;;;;;;4991946;28;20069;-47
2021/05/30 02:09:09;;;;;;;7.47;5.13;;;;;;;;;;4993958;28;20046;-50
2021/05/30 02:11:37;;;;;;;8.15;5.38;;;;;;;;;;4993610;28;20061;-49
2021/05/30 02:14:03;;;;;;;8.00;5.65;;;;;;;;;;4994554;28;20105;-48
2021/05/30 02:16:31;;;;;;;7.53;5.32;;;;;;;;;;4984239;28;20051;-47
2021/05/30 02:18:58;;;;;;;6.88;5.53;;;;;;;;;;4992911;28;20561;-47
2021/05/30 02:21:25;;;;;;;7.40;5.47;;;;;;;;;;4994020;28;20058;-48
2021/05/30 02:23:52;;;;;;;9.35;6.00;;;;;;;;;;4993892;28;20062;-47
2021/05/30 02:26:19;;;;;;;6.93;5.35;;;;;;;;;;4985594;28;20060;-55
2021/05/30 02:28:46;;;;;;;7.53;5.40;;;;;;;;;;4985586;28;20090;-48
2021/05/30 02:31:12;;;;;;;7.85;6.38;;;;;;;;;;4991517;28;20132;-48
2021/05/30 02:33:39;;;;;;;7.95;5.32;;;;;;;;;;4994639;28;20050;-48
2021/05/30 02:36:06;;;;;;;9.63;5.68;;;;;;;;;;4992487;28;20050;-48
2021/05/30 02:38:33;;;;;;;9.00;5.72;;;;;;;;;;4982374;28;20058;-49
2021/05/30 02:41:00;;;;;;;7.72;5.88;;;;;;;;;;4994011;28;20073;-46
2021/05/30 02:43:27;;;;;;;7.32;5.40;;;;;;;;;;4994140;28;20508;-47
2021/05/30 02:45:53;;;;;;;8.15;5.80;;;;;;;;;;4992819;28;20133;-47
2021/05/30 02:48:20;;;;;;;7.85;5.47;;;;;;;;;;4991903;28;20099;-51
2021/05/30 02:51:09;;;;;;;7.47;5.22;;;;;;;;;;4992800;28;20050;-51
2021/05/30 02:53:34;;;;;;;6.72;5.28;;;;;;;;;;4974694;28;20117;-48
2021/05/30 02:56:02;;;;;;;7.25;5.63;;;;;;;;;;4982451;28;20054;-46
2021/05/30 02:58:29;;;;;;;7.65;5.65;;;;;;;;;;4987946;28;20133;-45
2021/05/30 03:00:56;;;;;;;7.30;5.45;;;;;;;;;;4991018;28;20058;-47
2021/05/30 03:03:36;;;;;;;8.98;5.63;;;;;;;;;;4992012;28;20065;-49
2021/05/30 03:06:03;;;;;;;7.50;5.50;;;;;;;;;;4993278;28;20062;-50
2021/05/30 03:08:29;;;;;;;6.45;5.50;;;;;;;;;;4991178;28;20085;-49
2021/05/30 03:10:56;;;;;;;9.23;6.03;;;;;;;;;;4991770;28;20104;-52
2021/05/30 03:13:23;;;;;;;8.02;6.10;;;;;;;;;;4993332;28;20077;-51
2021/05/30 03:15:50;;;;;;;8.10;5.57;;;;;;;;;;4992710;28;20054;-48
2021/05/30 03:18:17;;;;;;;7.40;5.65;;;;;;;;;;4980297;28;20484;-49
2021/05/30 03:20:45;;;;;;;6.43;5.22;;;;;;;;;;4992660;28;20066;-49
2021/05/30 03:23:11;;;;;;;7.20;5.10;;;;;;;;;;4992474;28;20058;-51
2021/05/30 03:25:38;;;;;;;6.10;5.30;;;;;;;;;;4992158;28;20058;-49
2021/05/30 03:28:05;;;;;;;8.55;5.60;;;;;;;;;;4984908;28;20058;-48
2021/05/30 03:30:32;;;;;;;9.90;6.10;;;;;;;;;;4992616;28;20740;-49
2021/05/30 03:33:00;;;;;;;6.63;5.40;;;;;;;;;;4991689;28;20049;-52
2021/05/30 03:35:27;;;;;;;6.68;5.72;;;;;;;;;;4990317;28;20090;-49
2021/05/30 03:37:56;;;;;;;7.75;6.07;;;;;;;;;;4990228;28;20050;-51
2021/05/30 03:42:52;;;;;;;7.35;5.47;;;;;;;;;;4993294;28;20061;-49
2021/05/30 03:45:20;;;;;;;7.28;5.72;;;;;;;;;;4992522;28;20077;-49
2021/05/30 03:47:47;;;;;;;9.73;6.22;;;;;;;;;;4979343;28;20528;-47
2021/05/30 03:50:14;;;;;;;7.07;5.63;;;;;;;;;;4992513;28;20050;-47
2021/05/30 03:52:40;;;;;;;9.10;5.60;;;;;;;;;;4992068;28;20124;-51
2021/05/30 03:55:08;;;;;;;10.05;6.40;;;;;;;;;;4985631;28;20043;-48
2021/05/30 03:57:35;;;;;;;7.78;5.68;;;;;;;;;;4986374;28;20136;-50
2021/05/30 04:00:06;;;;;;;8.52;6.53;;;;;;;;;;4981859;28;20081;-48
2021/05/30 04:02:35;;;;;;;8.18;5.80;;;;;;;;;;4991962;28;20141;-49
2021/05/30 04:05:02;;;;;;;7.88;5.80;;;;;;;;;;4991302;28;20051;-49
2021/05/30 04:07:30;;;;;;;8.13;5.72;;;;;;;;;;4985097;28;20459;-49
2021/05/30 04:10:02;;;;;;;7.72;5.60;;;;;;;;;;4967948;28;20101;-52
2021/05/30 04:12:29;;;;;;;7.43;5.38;;;;;;;;;;4992873;28;20054;-48
2021/05/30 04:14:56;;;;;;;6.95;5.60;;;;;;;;;;4991788;28;20050;-49
2021/05/30 04:17:23;;;;;;;6.53;5.28;;;;;;;;;;4990813;28;20046;-51
2021/05/30 04:19:50;;;;;;;7.63;5.32;;;;;;;;;;4991598;28;20054;-48
2021/05/30 04:22:17;;;;;;;7.32;5.40;;;;;;;;;;4991899;28;20109;-51
2021/05/30 04:24:43;;;;;;;7.22;5.95;;;;;;;;;;4982666;28;20046;-49
2021/05/30 04:27:10;;;;;;;7.72;5.28;;;;;;;;;;4991707;28;20587;-52
2021/05/30 04:29:37;;;;;;;9.23;5.35;;;;;;;;;;4986706;28;20086;-48
2021/05/30 04:32:04;;;;;;;7.80;5.68;;;;;;;;;;4972923;28;20047;-48
2021/05/30 04:34:31;;;;;;;6.90;5.35;;;;;;;;;;4987591;28;20057;-49
2021/05/30 04:36:58;;;;;;;7.28;5.25;;;;;;;;;;4991546;28;20479;-49
2021/05/30 04:39:27;;;;;;;7.07;5.47;;;;;;;;;;4987834;28;20065;-52
2021/05/30 04:41:54;;;;;;;7.75;5.50;;;;;;;;;;4992723;28;20053;-50
2021/05/30 04:44:21;;;;;;;8.15;4.90;;;;;;;;;;4991723;28;20074;-50
2021/05/30 04:46:47;;;;;;;7.88;5.10;;;;;;;;;;4982294;28;20059;-47
2021/05/30 04:49:14;;;;;;;8.10;6.10;;;;;;;;;;4985537;28;20133;-48
2021/05/30 04:51:41;;;;;;;6.60;4.80;;;;;;;;;;4972705;28;20611;-48
2021/05/30 04:54:08;;;;;;;8.05;5.15;;;;;;;;;;4984380;28;20108;-48
2021/05/30 04:56:35;;;;;;;6.07;4.93;;;;;;;;;;4981996;28;20443;-48
2021/05/30 04:59:01;;;;;;;8.68;4.93;;;;;;;;;;5011238;23;20040;-52
2021/05/30 05:01:29;;;;;;;7.90;5.22;;;;;;;;;;5002271;28;20475;-52
2021/05/30 05:03:55;;;;;;;5.88;4.55;;;;;;;;;;5009014;28;20046;-51
2021/05/30 05:06:23;;;;;;;7.07;4.95;;;;;;;;;;5005727;28;20562;-55
2021/05/30 05:08:50;;;;;;;7.32;4.95;;;;;;;;;;5000602;28;20069;-55
2021/05/30 05:11:17;;;;;;;7.05;5.13;;;;;;;;;;5011093;28;20100;-49
2021/05/30 05:13:44;;;;;;;6.50;5.13;;;;;;;;;;5010049;28;20084;-50
2021/05/30 05:16:10;;;;;;;8.07;4.63;;;;;;;;;;5003589;28;20046;-53
2021/05/30 05:18:37;;;;;;;10.07;5.18;;;;;;;;;;5007221;28;20085;-51
2021/05/30 05:21:05;;;;;;;7.90;5.40;;;;;;;;;;5009929;28;20077;-54
2021/05/30 05:23:32;;;;;;;6.22;4.57;;;;;;;;;;5005111;28;20503;-52
2021/05/30 05:26:02;;;;;;;6.40;4.90;;;;;;;;;;5000757;28;20073;-53
2021/05/30 05:28:31;;;;;;;8.93;4.45;;;;;;;;;;5004639;28;20453;-50
2021/05/30 05:30:58;;;;;;;7.38;5.30;;;;;;;;;;5000619;28;20116;-52
2021/05/30 05:33:25;;;;;;;7.32;4.63;;;;;;;;;;5010490;28;20486;-56
2021/05/30 05:35:52;;;;;;;7.13;5.18;;;;;;;;;;5009075;28;20523;-50
2021/05/30 05:38:19;;;;;;;7.63;4.82;;;;;;;;;;4996235;28;20700;-50
2021/05/30 05:40:46;;;;;;;5.80;4.65;;;;;;;;;;5010595;28;20045;-51
2021/05/30 05:43:13;;;;;;;5.80;4.63;;;;;;;;;;5003265;28;20108;-54
2021/05/30 05:45:40;;;;;;;8.15;4.63;;;;;;;;;;5010774;28;20384;-51
2021/05/30 05:48:11;;;;;;;7.57;5.15;;;;;;;;;;5013573;28;20046;-51
2021/05/30 05:50:38;;;;;;;6.75;4.68;;;;;;;;;;5010016;28;20053;-50
2021/05/30 05:53:05;;;;;;;6.45;4.60;;;;;;;;;;5008691;28;20042;-49
2021/05/30 05:55:33;;;;;;;6.43;4.72;;;;;;;;;;5009553;28;20400;-51
2021/05/30 05:58:01;;;;;;;6.63;4.00;;;;;;;;;;4992721;28;20097;-50
2021/05/30 06:00:29;;;;;;;5.72;4.40;;;;;;;;;;5003936;28;20054;-49
2021/05/30 06:02:56;;;;;;;6.30;4.43;;;;;;;;;;5010290;28;20545;-50
2021/05/30 06:05:23;;;;;;;6.03;4.50;;;;;;;;;;5010638;28;20042;-50
2021/05/30 06:07:51;;;;;;;5.63;4.78;;;;;;;;;;5007260;28;20046;-49
2021/05/30 06:10:22;;;;;;;5.97;4.40;;;;;;;;;;5003730;28;20368;-49
2021/05/30 06:12:49;;;;;;;5.78;4.75;;;;;;;;;;5010462;28;20053;-50
2021/05/30 06:15:17;;;;;;;6.43;4.53;;;;;;;;;;5000411;28;20058;-51
2021/05/30 06:17:49;;;;;;;7.05;4.75;;;;;;;;;;5003330;28;20062;-49
2021/05/30 06:20:16;;;;;;;8.50;5.53;;;;;;;;;;4997886;28;20042;-50
2021/05/30 06:22:43;;;;;;;8.38;5.65;;;;;;;;;;5010083;28;20337;-54
2021/05/30 06:25:10;;;;;;;7.15;5.13;;;;;;;;;;5008598;28;20054;-51
2021/05/30 06:27:37;;;;;;;6.50;4.93;;;;;;;;;;4988453;28;20058;-50
2021/05/30 06:30:05;;;;;;;6.88;4.88;;;;;;;;;;5001420;28;20046;-53
2021/05/30 06:32:31;;;;;;;8.13;5.45;;;;;;;;;;5010268;28;20050;-49
2021/05/30 06:34:58;;;;;;;7.20;5.07;;;;;;;;;;5010372;28;20485;-54
2021/05/30 06:37:26;;;;;;;7.82;4.90;;;;;;;;;;5017980;28;20053;-55
2021/05/30 06:39:52;;;;;;;7.05;4.75;;;;;;;;;;5004844;28;20065;-53
2021/05/30 06:42:19;;;;;;;8.07;4.55;;;;;;;;;;5013393;28;20254;-51
2021/05/30 06:44:46;;;;;;;8.63;5.97;;;;;;;;;;5013510;28;20058;-50
2021/05/30 06:47:13;;;;;;;6.60;4.47;;;;;;;;;;5012409;28;20416;-49
2021/05/30 06:49:40;;;;;;;5.80;4.53;;;;;;;;;;5012689;28;20127;-52
2021/05/30 06:52:07;;;;;;;7.18;4.70;;;;;;;;;;5013412;28;20042;-50
2021/05/30 06:54:34;;;;;;;7.10;4.60;;;;;;;;;;5025586;28;20045;-55
2021/05/30 06:57:01;;;;;;;15.88;8.18;;;;;;;;;;5003871;28;20499;-52
2021/05/30 06:59:28;;;;;;;8.20;5.13;;;;;;;;;;5006251;28;20413;-52
2021/05/30 07:01:55;;;;;;;7.90;4.57;;;;;;;;;;5012181;28;20065;-49
2021/05/30 07:04:22;;;;;;;8.15;4.65;;;;;;;;;;5013074;28;20503;-54
2021/05/30 07:06:49;;;;;;;8.75;5.05;;;;;;;;;;5013251;28;20065;-53
2021/05/30 07:09:16;;;;;;;7.50;4.93;;;;;;;;;;5005473;28;20050;-51
2021/05/30 07:11:43;;;;;;;6.57;4.65;;;;;;;;;;5012968;28;20061;-51
2021/05/30 07:14:09;;;;;;;6.90;4.93;;;;;;;;;;5013888;28;20046;-52
2021/05/30 07:16:36;;;;;;;7.70;4.43;;;;;;;;;;5011399;28;20538;-52
2021/05/30 07:19:04;;;;;;;7.18;4.85;;;;;;;;;;5012768;28;20058;-54
2021/05/30 07:21:31;;;;;;;6.90;4.72;;;;;;;;;;5013710;28;20062;-53
2021/05/30 07:23:57;;;;;;;6.40;4.93;;;;;;;;;;5013986;28;20068;-54
2021/05/30 07:26:24;;;;;;;7.72;5.30;;;;;;;;;;5008181;28;20046;-53
2021/05/30 07:28:52;;;;;;;7.93;5.07;;;;;;;;;;5004664;28;20050;-54
2021/05/30 07:31:19;;;;;;;7.65;5.20;;;;;;;;;;4995836;28;20419;-52
2021/05/30 07:33:46;;;;;;;8.40;5.82;;;;;;;;;;5027360;28;20054;-55
2021/05/30 07:36:13;;;;;;;7.03;5.13;;;;;;;;;;4995677;28;20054;-49
2021/05/30 07:38:40;;;;;;;9.20;6.10;;;;;;;;;;5009937;28;20050;-54
2021/05/30 07:41:07;;;;;;;7.90;5.70;;;;;;;;;;5013264;28;20054;-52
2021/05/30 07:43:34;;;;;;;8.15;5.22;;;;;;;;;;5013367;28;20605;-49
2021/05/30 07:46:04;;;;;;;9.23;5.50;;;;;;;;;;5000760;28;20042;-52
2021/05/30 07:48:31;;;;;;;13.02;5.30;;;;;;;;;;5011522;28;20096;-55
2021/05/30 07:50:58;;;;;;;7.82;5.07;;;;;;;;;;5011437;28;20088;-50
2021/05/30 07:53:25;;;;;;;7.38;4.10;;;;;;;;;;5011035;28;20050;-53
2021/05/30 07:55:52;;;;;;;7.43;4.90;;;;;;;;;;5012455;28;20499;-52
2021/05/30 07:58:20;;;;;;;6.82;4.35;;;;;;;;;;4983272;28;20058;-54
2021/05/30 08:00:49;;;;;;;7.03;5.03;;;;;;;;;;4992989;28;20104;-53
2021/05/30 08:03:16;;;;;;;7.22;4.90;;;;;;;;;;4982361;28;20072;-51
2021/05/30 08:05:43;;;;;;;7.47;4.30;;;;;;;;;;5012825;28;20050;-52
2021/05/30 08:08:10;;;;;;;6.43;3.85;;;;;;;;;;5011750;28;20131;-51
2021/05/30 08:10:37;;;;;;;6.63;4.50;;;;;;;;;;5011864;28;20061;-51
2021/05/30 08:13:04;;;;;;;6.28;4.18;;;;;;;;;;5007198;28;20046;-55
2021/05/30 08:15:31;;;;;;;8.02;3.85;;;;;;;;;;4992965;28;20055;-51
2021/05/30 08:17:58;;;;;;;5.78;3.20;;;;;;;;;;5007174;28;20400;-50
2021/05/30 08:20:25;;;;;;;6.53;3.38;;;;;;;;;;4993189;28;20054;-54
2021/05/30 08:22:52;;;;;;;6.30;3.88;;;;;;;;;;4992708;28;20074;-52
2021/05/30 08:25:20;;;;;;;5.43;3.60;;;;;;;;;;4997870;28;20041;-50
2021/05/30 08:27:48;;;;;;;5.35;3.70;;;;;;;;;;5010549;28;20061;-51
2021/05/30 08:30:16;;;;;;;4.35;3.00;;;;;;;;;;4993362;28;20050;-50
2021/05/30 08:32:42;;;;;;;4.78;3.47;;;;;;;;;;4991537;28;20042;-53
2021/05/30 08:35:10;;;;;;;5.03;3.47;;;;;;;;;;4992796;28;20054;-50
2021/05/30 08:37:41;;;;;;;6.88;3.60;;;;;;;;;;4995726;28;20120;-54
2021/05/30 08:40:08;;;;;;;5.20;3.83;;;;;;;;;;4992335;28;20384;-52
2021/05/30 08:42:35;;;;;;;4.60;3.45;;;;;;;;;;5000245;28;20057;-50
2021/05/30 08:45:02;;;;;;;6.43;3.83;;;;;;;;;;5005747;28;20096;-47
2021/05/30 08:47:29;;;;;;;5.75;3.35;;;;;;;;;;4991623;28;20061;-48
2021/05/30 08:49:56;;;;;;;5.85;3.83;;;;;;;;;;5007382;28;20054;-47
2021/05/30 08:52:23;;;;;;;5.30;3.20;;;;;;;;;;4992365;28;20050;-51
2021/05/30 08:54:50;;;;;;;5.20;3.08;;;;;;;;;;5007275;28;20232;-49
2021/05/30 08:57:17;;;;;;;5.90;3.33;;;;;;;;;;4991451;28;20046;-51
2021/05/30 08:59:54;;;;;;;4.60;3.35;;;;;;;;;;5000531;28;20060;-54
2021/05/30 09:02:21;;;;;;;7.53;3.60;;;;;;;;;;5011545;28;20124;-52
2021/05/30 09:04:49;;;;;;;4.60;3.30;;;;;;;;;;5011771;28;20459;-52
2021/05/30 09:07:17;;;;;;;4.78;3.35;;;;;;;;;;5000431;28;20046;-53
2021/05/30 09:09:48;;;;;;;5.55;2.83;;;;;;;;;;5000548;28;20050;-51
2021/05/30 09:12:26;;;;;;;4.18;2.72;;;;;;;;;;5011699;28;20108;-50
2021/05/30 09:14:55;;;;;;;5.95;2.67;;;;;;;;;;5011716;28;20046;-51
2021/05/30 09:17:25;;;;;;;4.90;2.90;;;;;;;;;;5004675;28;20168;-50
2021/05/30 09:19:53;;;;;;;7.22;2.92;;;;;;;;;;5004279;28;20405;-51
2021/05/30 09:22:28;;;;;;;4.68;2.88;;;;;;;;;;5010705;28;20053;-52
2021/05/30 09:24:58;;;;;;;3.83;2.60;;;;;;;;;;5010547;28;20065;-52
2021/05/30 09:27:41;;;;;;;5.97;2.70;;;;;;;;;;5006582;28;20090;-52
2021/05/30 09:30:14;;;;;;;7.95;2.50;;;;;;;;;;4992356;28;20093;-49
2021/05/30 09:33:01;;;;;;;5.45;2.35;;;;;;;;;;4992441;28;20054;-52
2021/05/30 09:35:37;;;;;;;5.38;2.75;;;;;;;;;;5011888;28;20038;-48
2021/05/30 09:38:06;;;;;;;3.88;2.45;;;;;;;;;;4994562;28;20078;-49
2021/05/30 09:40:41;;;;;;;4.32;2.60;;;;;;;;;;5007501;28;20050;-51
2021/05/30 09:43:09;;;;;;;5.47;2.42;;;;;;;;;;4992030;28;20573;-51
2021/05/30 09:45:37;;;;;;;4.85;2.38;;;;;;;;;;4994568;28;20061;-51
2021/05/30 09:48:04;;;;;;;5.30;2.88;;;;;;;;;;5002464;28;20454;-51
2021/05/30 09:50:34;;;;;;;4.18;2.95;;;;;;;;;;5009922;28;20108;-45
2021/05/30 09:53:04;;;;;;;5.32;2.55;;;;;;;;;;5010109;28;20054;-52
2021/05/30 09:55:33;;;;;;;4.00;2.70;;;;;;;;;;5008816;28;20060;-53
2021/05/30 09:58:09;;;;;;;4.57;2.35;;;;;;;;;;5008536;28;20049;-53
2021/05/30 10:00:36;;;;;;;4.20;2.47;;;;;;;;;;5000500;28;20054;-54
2021/05/30 10:03:03;;;;;;;5.05;2.40;;;;;;;;;;5011289;28;20562;-52
2021/05/30 10:05:31;;;;;;;3.90;2.42;;;;;;;;;;5009679;28;20100;-50
2021/05/30 10:08:04;;;;;;;3.78;2.70;;;;;;;;;;5007403;28;20050;-54
2021/05/30 10:10:32;;;;;;;4.75;2.67;;;;;;;;;;5000953;28;20050;-54
2021/05/30 10:13:00;;;;;;;4.65;2.85;;;;;;;;;;5009680;28;20053;-54
2021/05/30 10:15:27;;;;;;;5.50;2.90;;;;;;;;;;5010685;28;20049;-54
2021/05/30 10:17:58;;;;;;;3.88;3.10;;;;;;;;;;5008618;28;20052;-53
2021/05/30 10:20:25;;;;;;;6.15;3.33;;;;;;;;;;5008285;28;20133;-53
2021/05/30 10:22:53;;;;;;;7.05;3.40;;;;;;;;;;5013345;28;20184;-52
2021/05/30 10:25:31;;;;;;;5.40;2.80;;;;;;;;;;5006614;28;20100;-54
2021/05/30 10:28:10;;;;;;;3.28;2.50;;;;;;;;;;5014377;28;20057;-55
2021/05/30 10:30:37;;;;;;;4.05;2.67;;;;;;;;;;5007139;28;20048;-53
2021/05/30 10:33:12;;;;;;;5.70;3.33;;;;;;;;;;5014337;28;20045;-54
2021/05/30 10:35:43;;;;;;;7.30;3.47;;;;;;;;;;5015269;28;20092;-47
2021/05/30 10:38:11;;;;;;;5.57;3.17;;;;;;;;;;5008975;28;20483;-50
2021/05/30 10:40:43;;;;;;;4.40;2.90;;;;;;;;;;5013502;28;20124;-49
2021/05/30 10:43:11;;;;;;;4.53;3.35;;;;;;;;;;5002935;28;20093;-50
2021/05/30 10:45:41;;;;;;;5.30;3.13;;;;;;;;;;5011733;28;20483;-48
2021/05/30 10:48:12;;;;;;;3.97;2.55;;;;;;;;;;5007989;28;20049;-51
2021/05/30 10:50:48;;;;;;;5.70;2.78;;;;;;;;;;5011550;28;20132;-51
2021/05/30 10:53:30;;;;;;;5.07;3.28;;;;;;;;;;5011990;28;20077;-49
2021/05/30 10:56:18;;;;;;;6.97;3.22;;;;;;;;;;5006606;28;20061;-48
2021/05/30 10:59:05;;;;;;;5.80;2.92;;;;;;;;;;4992085;28;20083;-47
2021/05/30 11:01:43;;;;;;;4.82;3.00;;;;;;;;;;5012443;28;20061;-47
2021/05/30 11:04:30;;;;;;;5.60;3.15;;;;;;;;;;5011958;28;20054;-47
2021/05/30 11:06:58;;;;;;;5.22;3.05;;;;;;;;;;5007592;28;20072;-49
2021/05/30 11:09:43;;;;;;;4.10;2.78;;;;;;;;;;5008826;22;20050;-48
2021/05/30 11:12:19;;;;;;;5.63;3.45;;;;;;;;;;4974507;28;20046;-47
2021/05/30 11:15:06;;;;;;;4.25;2.92;;;;;;;;;;4971418;28;20051;-44
2021/05/30 11:17:40;;;;;;;5.70;2.88;;;;;;;;;;4974011;28;20059;-51
2021/05/30 11:20:08;;;;;;;5.05;2.90;;;;;;;;;;4972708;28;20058;-48
2021/05/30 11:22:53;;;;;;;4.10;2.70;;;;;;;;;;4972803;28;20105;-53
2021/05/30 11:25:34;;;;;;;4.35;3.33;;;;;;;;;;4970757;28;20039;-51
2021/05/30 11:28:05;;;;;;;4.20;2.83;;;;;;;;;;4965603;28;20053;-51
2021/05/30 11:30:51;;;;;;;5.00;3.10;;;;;;;;;;4978381;28;20057;-52
2021/05/30 11:33:21;;;;;;;4.55;3.25;;;;;;;;;;4964551;28;20531;-50
2021/05/30 11:35:49;;;;;;;6.05;2.97;;;;;;;;;;4964234;28;20078;-48
2021/05/30 11:38:16;;;;;;;5.03;2.97;;;;;;;;;;4971039;28;20471;-50
2021/05/30 11:40:43;;;;;;;5.13;3.10;;;;;;;;;;4966487;28;20051;-53
2021/05/30 11:43:14;;;;;;;4.43;3.08;;;;;;;;;;4971987;28;20059;-51
2021/05/30 11:45:43;;;;;;;3.83;2.72;;;;;;;;;;4972435;28;20074;-54
2021/05/30 11:48:10;;;;;;;3.95;2.80;;;;;;;;;;4971517;28;20047;-54
2021/05/30 11:50:40;;;;;;;5.38;3.15;;;;;;;;;;4969358;28;20129;-52
2021/05/30 11:53:07;;;;;;;6.05;3.30;;;;;;;;;;4971479;28;20054;-53
2021/05/30 11:55:38;;;;;;;5.00;3.08;;;;;;;;;;4989502;28;20059;-50
2021/05/30 11:58:08;;;;;;;5.68;3.40;;;;;;;;;;4968484;28;20211;-52
2021/05/30 12:00:38;;;;;;;;;;;;;;;;;;4971263;28;20047;-51
2021/05/30 12:03:09;;;;;;;5.68;2.80;;;;;;;;;;4968850;28;19974;-54
2021/05/30 12:05:36;;;;;;;4.78;2.97;;;;;;;;;;4985085;28;20047;-49
2021/05/30 12:08:13;;;;;;;4.38;2.75;;;;;;;;;;4971435;28;20440;-51
2021/05/30 12:10:48;;;;;;;4.30;3.17;;;;;;;;;;4967428;28;20093;-50
2021/05/30 12:13:25;;;;;;;5.25;2.80;;;;;;;;;;4973708;28;20043;-52
2021/05/30 12:15:53;;;;;;;5.72;2.65;;;;;;;;;;4959527;28;20568;-49
2021/05/30 12:18:21;;;;;;;4.50;2.80;;;;;;;;;;4987678;28;20054;-50
2021/05/30 12:20:49;;;;;;;4.82;2.65;;;;;;;;;;4973367;28;20558;-49
2021/05/30 12:23:22;;;;;;;5.10;2.92;;;;;;;;;;4970125;28;20059;-49
2021/05/30 12:25:56;;;;;;;5.07;2.70;;;;;;;;;;4970434;28;20113;-54
2021/05/30 12:28:24;;;;;;;4.78;3.15;;;;;;;;;;4967706;28;20050;-54
2021/05/30 12:30:52;;;;;;;4.20;2.80;;;;;;;;;;4972937;28;20055;-53
2021/05/30 12:33:21;;;;;;;5.65;2.63;;;;;;;;;;4938366;28;20062;-54
2021/05/30 12:35:50;;;;;;;5.93;2.60;;;;;;;;;;4968079;28;20146;-52
2021/05/30 12:38:19;;;;;;;4.28;2.45;;;;;;;;;;4969616;28;20122;-55
2021/05/30 12:40:48;;;;;;;4.97;2.50;;;;;;;;;;4968966;28;20055;-52
2021/05/30 12:43:15;;;;;;;5.13;2.70;;;;;;;;;;4968966;28;20054;-50
2021/05/30 12:45:55;;;;;;;4.72;2.50;;;;;;;;;;4975007;28;20050;-49
2021/05/30 12:48:22;;;;;;;4.40;2.65;;;;;;;;;;4968281;28;20043;-50
2021/05/30 12:50:53;;;;;;;5.10;2.33;;;;;;;;;;4961013;28;20409;-52
2021/05/30 12:53:30;;;;;;;4.32;2.45;;;;;;;;;;4975448;28;20043;-54
2021/05/30 12:55:57;;;;;;;4.90;2.50;;;;;;;;;;4971111;28;20057;-53
2021/05/30 12:58:24;;;;;;;4.40;2.50;;;;;;;;;;4974507;28;20487;-50
2021/05/30 13:00:51;;;;;;;5.47;3.00;;;;;;;;;;4981247;28;20058;-49
2021/05/30 13:03:23;;;;;;;4.30;2.67;;;;;;;;;;4977045;28;20050;-49
2021/05/30 13:05:50;;;;;;;3.97;2.58;;;;;;;;;;4971382;28;20141;-49
2021/05/30 13:08:21;;;;;;;4.28;2.90;;;;;;;;;;4963338;28;20085;-49
2021/05/30 13:10:49;;;;;;;4.00;2.53;;;;;;;;;;4972574;28;20073;-50
2021/05/30 13:13:38;;;;;;;7.32;2.92;;;;;;;;;;4984201;28;20117;-53
2021/05/30 13:16:05;;;;;;;4.35;2.75;;;;;;;;;;4974644;28;20046;-47
2021/05/30 13:18:48;;;;;;;4.68;3.03;;;;;;;;;;4975445;28;20146;-49
2021/05/30 13:21:28;;;;;;;6.03;2.63;;;;;;;;;;4971146;28;20094;-48
2021/05/30 13:24:04;;;;;;;5.43;2.55;;;;;;;;;;4966798;28;20555;-53
2021/05/30 13:26:31;;;;;;;4.40;2.80;;;;;;;;;;4971408;28;20059;-51
2021/05/30 13:28:57;;;;;;;4.47;2.80;;;;;;;;;;4991368;28;20149;-51
2021/05/30 13:31:26;;;;;;;3.70;2.40;;;;;;;;;;4971559;28;20047;-53
2021/05/30 13:33:54;;;;;;;5.07;3.05;;;;;;;;;;4970891;28;20415;-50
2021/05/30 13:36:25;;;;;;;3.88;2.60;;;;;;;;;;4971205;28;20416;-53
2021/05/30 13:38:53;;;;;;;5.68;3.15;;;;;;;;;;4960106;28;20465;-48
2021/05/30 13:41:20;;;;;;;4.97;2.85;;;;;;;;;;4958411;28;20129;-49
2021/05/30 13:43:47;;;;;;;4.65;2.50;;;;;;;;;;4964075;28;20144;-52
2021/05/30 13:46:14;;;;;;;3.80;2.78;;;;;;;;;;4969752;28;20113;-53
2021/05/30 13:48:41;;;;;;;3.22;2.38;;;;;;;;;;4974900;28;20114;-48
2021/05/30 13:51:11;;;;;;;3.53;2.75;;;;;;;;;;4975552;28;20101;-51
2021/05/30 13:53:39;;;;;;;4.25;2.53;;;;;;;;;;4975677;28;20049;-53
2021/05/30 13:56:05;;;;;;;4.93;2.53;;;;;;;;;;4974311;28;20598;-52
2021/05/30 13:58:32;;;;;;;3.40;2.33;;;;;;;;;;4974480;28;20058;-50
2021/05/30 14:01:00;;;;;;;4.68;2.72;;;;;;;;;;4990138;28;20047;-53
2021/05/30 14:03:27;;;;;;;6.03;2.85;;;;;;;;;;4975540;28;20558;-54
2021/05/30 14:05:54;;;;;;;4.35;2.80;;;;;;;;;;4975737;28;20105;-51
2021/05/30 14:08:21;;;;;;;4.25;2.60;;;;;;;;;;4975249;28;20054;-50
2021/05/30 14:10:48;;;;;;;3.80;2.38;;;;;;;;;;4975234;28;20056;-51
2021/05/30 14:13:14;;;;;;;3.38;2.40;;;;;;;;;;4975390;28;20042;-52
2021/05/30 14:15:41;;;;;;;3.50;2.40;;;;;;;;;;4979828;28;20055;-52
2021/05/30 14:18:08;;;;;;;5.25;2.35;;;;;;;;;;4994615;28;20661;-51
2021/05/30 14:20:35;;;;;;;4.10;2.40;;;;;;;;;;4994826;28;20066;-50
2021/05/30 14:23:03;;;;;;;3.70;2.42;;;;;;;;;;4982682;28;20424;-53
2021/05/30 14:25:30;;;;;;;4.28;2.45;;;;;;;;;;4979151;28;20166;-52
2021/05/30 14:28:01;;;;;;;4.22;2.90;;;;;;;;;;4974479;28;20051;-53
2021/05/30 14:30:30;;;;;;;8.63;2.83;;;;;;;;;;4987622;28;20062;-49
2021/05/30 14:32:57;;;;;;;7.03;3.08;;;;;;;;;;4975062;28;20062;-53
2021/05/30 14:35:24;;;;;;;4.93;2.70;;;;;;;;;;4985127;28;20102;-52
2021/05/30 14:37:53;;;;;;;3.97;2.67;;;;;;;;;;4990920;28;20097;-51
2021/05/30 14:40:20;;;;;;;5.43;2.92;;;;;;;;;;4989657;28;20524;-52
2021/05/30 14:42:47;;;;;;;4.78;2.90;;;;;;;;;;4973896;28;20531;-52
2021/05/30 14:45:14;;;;;;;5.93;2.67;;;;;;;;;;4980189;28;20047;-51
2021/05/30 14:47:40;;;;;;;4.97;3.00;;;;;;;;;;4974849;28;20046;-49
2021/05/30 14:50:08;;;;;;;3.97;2.65;;;;;;;;;;4974737;28;20413;-54
2021/05/30 14:52:34;;;;;;;4.75;2.70;;;;;;;;;;4977134;28;20046;-52
2021/05/30 14:55:01;;;;;;;3.70;2.50;;;;;;;;;;4992763;28;20062;-52
2021/05/30 14:57:28;;;;;;;4.53;2.92;;;;;;;;;;4974362;28;20054;-49